createdAt,value
2022-08-21T00:01:56.021Z,68.07
2022-08-21T00:04:29.203Z,53.10
2022-08-21T00:06:59.165Z,48.73
2022-08-21T00:09:27.760Z,59.43
2022-08-21T00:11:56.258Z,56.73
2022-08-21T00:14:26.158Z,65.13
2022-08-21T00:17:01.245Z,51.60
2022-08-21T00:19:30.446Z,55.33
2022-08-21T00:21:59.324Z,47.50
2022-08-21T00:24:29.221Z,56.20
2022-08-21T00:26:57.777Z,54.00
2022-08-21T00:29:27.635Z,52.00
2022-08-21T00:31:56.117Z,53.17
2022-08-21T00:34:24.850Z,52.90
2022-08-21T00:36:53.299Z,53.90
2022-08-21T00:39:21.752Z,59.90
2022-08-21T00:41:50.374Z,56.07
2022-08-21T00:44:18.930Z,73.30
2022-08-21T00:46:49.335Z,43.70
2022-08-21T00:49:20.864Z,60.47
2022-08-21T00:51:54.040Z,111.43
2022-08-21T00:54:26.749Z,56.10
2022-08-21T00:57:01.188Z,103.60
2022-08-21T00:59:36.998Z,50.47
2022-08-21T01:02:09.950Z,85.93
2022-08-21T01:04:38.622Z,56.67
2022-08-21T01:07:07.978Z,49.63
2022-08-21T01:09:37.316Z,71.93
2022-08-21T01:12:06.866Z,102.50
2022-08-21T01:14:36.353Z,65.00
2022-08-21T01:17:08.156Z,61.03
2022-08-21T01:19:36.694Z,42.13
2022-08-21T01:22:07.277Z,86.80
2022-08-21T01:24:36.235Z,38.27
2022-08-21T01:27:06.171Z,57.87
2022-08-21T01:29:44.358Z,42.60
2022-08-21T01:32:16.967Z,44.10
2022-08-21T01:34:50.203Z,51.47
2022-08-21T01:37:22.307Z,48.30
2022-08-21T01:39:51.053Z,64.00
2022-08-21T01:42:19.938Z,58.33
2022-08-21T01:44:48.543Z,53.70
2022-08-21T01:47:18.680Z,77.43
2022-08-21T01:49:47.710Z,114.20
2022-08-21T01:52:16.224Z,62.13
2022-08-21T01:54:46.241Z,49.43
2022-08-21T01:57:26.219Z,76.97
2022-08-21T01:59:55.115Z,59.03
2022-08-21T02:02:23.808Z,52.10
2022-08-21T02:04:52.255Z,68.83
2022-08-21T02:07:20.829Z,94.40
2022-08-21T02:09:50.784Z,92.97
2022-08-21T02:12:19.279Z,131.63
2022-08-21T02:14:47.773Z,109.93
2022-08-21T02:17:16.292Z,93.47
2022-08-21T02:19:44.738Z,110.23
2022-08-21T02:22:13.896Z,135.67
2022-08-21T02:24:54.557Z,121.97
2022-08-21T02:27:27.408Z,89.57
2022-08-21T02:29:58.603Z,67.70
2022-08-21T02:32:28.019Z,46.27
2022-08-21T02:34:56.867Z,57.77
2022-08-21T02:37:26.556Z,62.53
2022-08-21T02:39:55.234Z,44.97
2022-08-21T02:42:25.086Z,76.20
2022-08-21T02:44:53.500Z,44.53
2022-08-21T02:47:21.990Z,72.50
2022-08-21T02:49:50.415Z,64.23
2022-08-21T02:52:18.942Z,143.57
2022-08-21T02:54:47.834Z,104.40
2022-08-21T02:57:16.344Z,55.70
2022-08-21T02:59:46.439Z,59.10
2022-08-21T03:02:15.612Z,77.37
2022-08-21T03:04:46.683Z,89.77
2022-08-21T03:07:16.280Z,84.63
2022-08-21T03:09:55.213Z,52.83
2022-08-21T03:12:24.788Z,67.60
2022-08-21T03:14:56.456Z,103.90
2022-08-21T03:17:29.478Z,149.80
2022-08-21T03:19:59.365Z,104.40
2022-08-21T03:22:30.905Z,93.33
2022-08-21T03:24:59.688Z,67.77
2022-08-21T03:27:28.773Z,97.50
2022-08-21T03:30:00.184Z,84.37
2022-08-21T03:32:28.935Z,56.27
2022-08-21T03:34:57.387Z,51.60
2022-08-21T03:37:26.379Z,43.10
2022-08-21T03:39:55.745Z,61.03
2022-08-21T03:42:24.827Z,108.33
2022-08-21T03:44:53.765Z,68.97
2022-08-21T03:47:23.990Z,57.87
2022-08-21T03:49:53.080Z,48.50
2022-08-21T03:52:21.617Z,42.97
2022-08-21T03:54:51.247Z,42.63
2022-08-21T03:57:20.302Z,161.10
2022-08-21T03:59:48.977Z,77.93
2022-08-21T04:02:23.468Z,85.90
2022-08-21T04:04:51.956Z,103.40
2022-08-21T04:07:20.398Z,159.60
2022-08-21T04:09:48.837Z,81.77
2022-08-21T04:12:17.294Z,60.00
2022-08-21T04:14:45.793Z,222.93
2022-08-21T04:17:14.333Z,172.60
2022-08-21T04:19:44.164Z,87.17
2022-08-21T04:22:12.822Z,138.23
2022-08-21T04:24:41.334Z,121.20
2022-08-21T04:27:09.806Z,103.57
2022-08-21T04:29:40.045Z,79.87
2022-08-21T04:32:09.023Z,104.83
2022-08-21T04:34:37.476Z,91.63
2022-08-21T04:37:07.448Z,48.27
2022-08-21T04:39:35.943Z,65.03
2022-08-21T04:42:05.895Z,78.63
2022-08-21T04:44:34.368Z,104.30
2022-08-21T04:47:02.884Z,38.30
2022-08-21T04:49:32.052Z,85.90
2022-08-21T04:52:01.479Z,63.27
2022-08-21T04:54:31.322Z,88.07
2022-08-21T04:57:06.605Z,99.30
2022-08-21T04:59:42.695Z,91.20
2022-08-21T05:02:12.130Z,82.63
2022-08-21T05:04:47.802Z,76.93
2022-08-21T05:07:42.412Z,63.13
2022-08-21T05:10:14.906Z,59.07
2022-08-21T05:12:44.980Z,51.07
2022-08-21T05:15:15.166Z,81.80
2022-08-21T05:17:44.249Z,71.53
2022-08-21T05:20:22.204Z,48.40
2022-08-21T05:22:50.693Z,87.50
2022-08-21T05:25:22.275Z,106.87
2022-08-21T05:27:52.757Z,111.70
2022-08-21T05:30:22.268Z,119.83
2022-08-21T05:32:50.738Z,46.93
2022-08-21T05:35:19.199Z,65.37
2022-08-21T05:37:47.700Z,37.27
2022-08-21T05:40:22.347Z,55.97
2022-08-21T05:42:56.570Z,46.50
2022-08-21T05:45:41.781Z,66.70
2022-08-21T05:48:16.380Z,43.83
2022-08-21T05:50:47.145Z,46.57
2022-08-21T05:53:17.493Z,47.17
2022-08-21T05:55:47.282Z,55.83
2022-08-21T05:58:22.333Z,50.93
2022-08-21T06:00:53.745Z,53.83
2022-08-21T06:03:25.615Z,44.00
2022-08-21T06:05:54.683Z,54.00
2022-08-21T06:08:26.127Z,50.10
2022-08-21T06:10:57.755Z,49.53
2022-08-21T06:13:28.679Z,49.63
2022-08-21T06:16:09.501Z,47.50
2022-08-21T06:18:40.066Z,50.47
2022-08-21T06:21:09.323Z,66.73
2022-08-21T06:23:37.904Z,46.20
2022-08-21T06:26:09.277Z,61.17
2022-08-21T06:28:39.957Z,49.97
2022-08-21T06:31:16.079Z,50.30
2022-08-21T06:33:44.874Z,52.10
2022-08-21T06:36:13.618Z,51.53
2022-08-21T06:38:42.322Z,38.90
2022-08-21T06:41:24.380Z,45.10
2022-08-21T06:43:58.974Z,43.40
2022-08-21T06:46:31.573Z,47.83
2022-08-21T06:49:00.379Z,47.80
2022-08-21T06:51:29.314Z,41.97
2022-08-21T06:53:59.406Z,46.23
2022-08-21T06:56:28.076Z,42.57
2022-08-21T06:58:58.095Z,45.77
2022-08-21T07:01:28.830Z,41.63
2022-08-21T07:03:57.594Z,40.33
2022-08-21T07:06:26.886Z,41.00
2022-08-21T07:08:58.874Z,36.00
2022-08-21T07:11:28.259Z,39.40
2022-08-21T07:13:59.416Z,40.20
2022-08-21T07:16:27.895Z,38.23
2022-08-21T07:18:56.474Z,33.90
2022-08-21T07:21:26.173Z,34.43
2022-08-21T07:23:55.033Z,35.57
2022-08-21T07:26:25.582Z,32.87
2022-08-21T07:28:55.401Z,33.40
2022-08-21T07:31:27.475Z,29.00
2022-08-21T07:33:56.561Z,27.90
2022-08-21T07:36:25.438Z,27.93
2022-08-21T07:38:54.168Z,32.70
2022-08-21T07:41:26.260Z,30.07
2022-08-21T07:43:55.006Z,36.10
2022-08-21T07:46:25.215Z,27.73
2022-08-21T07:48:54.311Z,26.60
2022-08-21T07:51:28.589Z,29.63
2022-08-21T07:54:00.018Z,23.67
2022-08-21T07:56:29.426Z,30.80
2022-08-21T07:58:58.757Z,27.67
2022-08-21T08:01:28.895Z,28.80
2022-08-21T08:03:57.580Z,29.67
2022-08-21T08:06:26.926Z,27.10
2022-08-21T08:08:55.402Z,27.70
2022-08-21T08:11:23.882Z,27.67
2022-08-21T08:13:54.359Z,29.83
2022-08-21T08:16:23.029Z,28.33
2022-08-21T08:18:53.412Z,31.20
2022-08-21T08:21:22.068Z,29.37
2022-08-21T08:23:50.837Z,29.87
2022-08-21T08:26:19.287Z,28.57
2022-08-21T08:28:48.644Z,28.60
2022-08-21T08:31:17.750Z,29.47
2022-08-21T08:33:46.314Z,33.47
2022-08-21T08:36:19.913Z,29.90
2022-08-21T08:38:49.892Z,30.00
2022-08-21T08:41:23.847Z,27.17
2022-08-21T08:44:06.829Z,26.67
2022-08-21T08:46:43.135Z,25.63
2022-08-21T08:49:23.237Z,30.23
2022-08-21T08:52:01.587Z,28.67
2022-08-21T08:54:35.438Z,29.40
2022-08-21T08:57:09.644Z,32.00
2022-08-21T08:59:43.774Z,28.83
2022-08-21T09:02:15.292Z,27.73
2022-08-21T09:04:46.435Z,28.90
2022-08-21T09:07:33.009Z,28.70
2022-08-21T09:10:16.268Z,30.57
2022-08-21T09:12:59.155Z,30.90
2022-08-21T09:15:36.679Z,33.40
2022-08-21T09:18:36.454Z,26.70
2022-08-21T09:21:21.590Z,31.93
2022-08-21T09:24:02.471Z,26.20
2022-08-21T09:26:49.277Z,27.67
2022-08-21T09:29:24.398Z,30.50
2022-08-21T09:31:53.586Z,38.10
2022-08-21T09:34:29.801Z,27.30
2022-08-21T09:36:59.961Z,28.77
2022-08-21T09:39:45.657Z,31.70
2022-08-21T09:42:26.990Z,30.73
2022-08-21T09:45:14.801Z,30.10
2022-08-21T09:47:44.098Z,27.27
2022-08-21T09:50:18.240Z,35.40
2022-08-21T09:52:52.298Z,35.47
2022-08-21T09:55:53.917Z,33.33
2022-08-21T09:58:23.212Z,31.10
2022-08-21T10:01:07.455Z,29.20
2022-08-21T10:03:36.097Z,28.43
2022-08-21T10:06:11.739Z,29.97
2022-08-21T10:08:43.337Z,27.43
2022-08-21T10:11:18.325Z,30.20
2022-08-21T10:14:01.155Z,30.37
2022-08-21T10:16:44.236Z,29.03
2022-08-21T10:19:27.422Z,30.07
2022-08-21T10:22:12.549Z,30.13
2022-08-21T10:25:00.859Z,28.13
2022-08-21T10:27:45.657Z,29.70
2022-08-21T10:30:21.636Z,28.53
2022-08-21T10:33:09.902Z,29.23
2022-08-21T10:35:47.087Z,28.47
2022-08-21T10:42:16.651Z,28.23
2022-08-21T10:45:12.436Z,27.23
2022-08-21T10:47:53.762Z,29.13
2022-08-21T10:50:34.191Z,27.57
2022-08-21T10:53:34.408Z,29.80
2022-08-21T10:56:15.266Z,28.07
2022-08-21T10:59:01.501Z,25.30
2022-08-21T11:01:41.275Z,28.90
2022-08-21T11:04:18.139Z,28.50
2022-08-21T11:06:55.364Z,23.77
2022-08-21T11:09:28.845Z,27.13
2022-08-21T11:12:11.118Z,24.93
2022-08-21T11:14:56.090Z,25.43
2022-08-21T11:17:40.931Z,25.50
2022-08-21T11:20:16.999Z,24.33
2022-08-21T11:23:00.066Z,23.77
2022-08-21T11:25:37.447Z,26.37
2022-08-21T11:28:16.499Z,27.43
2022-08-21T11:31:03.551Z,28.07
2022-08-21T11:33:55.825Z,28.43
2022-08-21T11:36:38.565Z,29.00
2022-08-21T11:39:24.392Z,32.30
2022-08-21T11:42:08.318Z,25.57
2022-08-21T11:44:51.465Z,23.93
2022-08-21T11:47:35.448Z,29.13
2022-08-21T11:50:34.532Z,30.93
2022-08-21T11:53:13.812Z,31.57
2022-08-21T11:55:50.587Z,28.30
2022-08-21T11:58:26.552Z,32.50
2022-08-21T12:01:06.628Z,28.47
2022-08-21T12:03:41.139Z,29.60
2022-08-21T12:06:24.447Z,26.20
2022-08-21T12:09:02.875Z,25.17
2022-08-21T12:11:32.568Z,28.60
2022-08-21T12:14:15.305Z,25.37
2022-08-21T12:16:46.423Z,25.43
2022-08-21T12:19:33.406Z,24.57
2022-08-21T12:22:14.823Z,27.23
2022-08-21T12:24:47.529Z,20.47
2022-08-21T12:27:27.053Z,24.30
2022-08-21T12:30:02.361Z,20.43
2022-08-21T12:32:45.419Z,19.07
2022-08-21T12:35:24.909Z,19.93
2022-08-21T12:38:06.987Z,21.43
2022-08-21T12:40:49.486Z,20.70
2022-08-21T12:43:24.225Z,19.70
2022-08-21T12:45:53.523Z,18.60
2022-08-21T12:48:30.158Z,18.07
2022-08-21T12:51:10.882Z,17.00
2022-08-21T12:53:49.489Z,19.17
2022-08-21T12:56:21.731Z,17.50
2022-08-21T12:58:55.862Z,17.80
2022-08-21T13:01:30.826Z,18.70
2022-08-21T13:04:05.931Z,14.67
2022-08-21T13:06:43.161Z,14.67
2022-08-21T13:09:17.688Z,15.73
2022-08-21T13:11:50.932Z,17.13
2022-08-21T13:14:38.395Z,15.73
2022-08-21T13:17:16.469Z,15.53
2022-08-21T13:19:58.169Z,16.07
2022-08-21T13:22:34.100Z,14.37
2022-08-21T13:25:13.073Z,14.53
2022-08-21T13:27:42.609Z,13.47
2022-08-21T13:30:19.462Z,13.97
2022-08-21T13:32:53.758Z,15.83
2022-08-21T13:35:27.822Z,15.53
2022-08-21T13:37:58.064Z,13.90
2022-08-21T13:40:32.115Z,15.20
2022-08-21T13:43:03.156Z,17.00
2022-08-21T13:45:34.660Z,16.17
2022-08-21T13:48:06.770Z,21.83
2022-08-21T13:50:40.252Z,16.43
2022-08-21T13:53:23.752Z,13.70
2022-08-21T13:55:57.397Z,15.57
2022-08-21T13:58:32.726Z,13.47
2022-08-21T14:01:06.981Z,13.30
2022-08-21T14:03:43.959Z,13.53
2022-08-21T14:06:20.152Z,14.37
2022-08-21T14:08:55.356Z,14.30
2022-08-21T14:11:27.191Z,15.07
2022-08-21T14:14:04.745Z,14.07
2022-08-21T14:16:47.470Z,13.80
2022-08-21T14:19:23.064Z,14.80
2022-08-21T14:21:52.141Z,15.73
2022-08-21T14:24:31.456Z,15.73
2022-08-21T14:27:08.873Z,14.20
2022-08-21T14:29:44.348Z,15.70
2022-08-21T14:32:21.779Z,13.90
2022-08-21T14:34:55.157Z,15.00
2022-08-21T14:37:29.682Z,14.00
2022-08-21T14:39:59.606Z,14.87
2022-08-21T14:42:30.657Z,18.70
2022-08-21T14:45:07.296Z,15.57
2022-08-21T14:47:35.799Z,19.03
2022-08-21T14:50:05.211Z,15.23
2022-08-21T14:52:33.789Z,14.50
2022-08-21T14:55:03.107Z,15.93
2022-08-21T14:57:36.749Z,14.80
2022-08-21T15:00:12.023Z,14.60
2022-08-21T15:02:44.827Z,16.00
2022-08-21T15:05:15.632Z,13.57
2022-08-21T15:07:55.842Z,14.07
2022-08-21T15:10:25.642Z,14.70
2022-08-21T15:12:55.667Z,13.93
2022-08-21T15:15:49.257Z,13.77
2022-08-21T15:18:20.287Z,14.70
2022-08-21T15:20:49.613Z,12.77
2022-08-21T15:23:31.559Z,13.57
2022-08-21T15:26:02.289Z,13.87
2022-08-21T15:28:45.427Z,14.57
2022-08-21T15:31:19.749Z,13.53
2022-08-21T15:33:48.819Z,14.67
2022-08-21T15:36:20.018Z,13.50
2022-08-21T15:38:48.783Z,13.47
2022-08-21T15:45:49.659Z,14.73
2022-08-21T15:48:44.243Z,14.73
2022-08-21T15:54:59.138Z,12.37
2022-08-21T15:57:28.552Z,13.20
2022-08-21T16:00:08.452Z,13.50
2022-08-21T16:02:47.896Z,14.47
2022-08-21T16:05:19.282Z,13.27
2022-08-21T16:07:49.429Z,12.53
2022-08-21T16:10:23.681Z,13.30
2022-08-21T16:13:03.815Z,13.70
2022-08-21T16:15:32.768Z,12.73
2022-08-21T16:18:03.177Z,14.23
2022-08-21T16:20:32.235Z,13.50
2022-08-21T16:23:01.200Z,17.00
2022-08-21T16:25:40.692Z,12.27
2022-08-21T16:28:15.063Z,14.93
2022-08-21T16:30:52.454Z,12.27
2022-08-21T16:33:32.102Z,12.93
2022-08-21T16:36:19.736Z,14.33
2022-08-21T16:40:21.466Z,14.13
2022-08-21T16:42:55.865Z,13.20
2022-08-21T16:45:33.379Z,13.80
2022-08-21T16:48:52.727Z,12.67
2022-08-21T16:51:52.460Z,14.73
2022-08-21T16:54:25.449Z,14.70
2022-08-21T16:57:00.592Z,13.60
2022-08-21T16:59:29.711Z,14.10
2022-08-21T17:01:58.556Z,13.10
2022-08-21T17:05:14.206Z,13.10
2022-08-21T17:08:30.146Z,14.53
2022-08-21T17:11:47.287Z,17.27
2022-08-21T17:14:36.086Z,21.50
2022-08-21T17:25:28.945Z,13.93
2022-08-21T17:30:08.826Z,13.83
2022-08-21T17:33:41.373Z,13.30
2022-08-21T17:37:12.895Z,14.47
2022-08-21T17:44:30.604Z,13.60
2022-08-21T17:47:15.654Z,12.63
2022-08-21T17:50:45.526Z,14.60
2022-08-21T17:55:12.130Z,12.90
2022-08-21T18:04:44.720Z,14.33
2022-08-21T18:10:06.905Z,13.73
2022-08-21T18:23:43.449Z,15.07
2022-08-21T18:26:44.483Z,18.20
2022-08-21T18:29:17.085Z,14.90
2022-08-21T18:31:47.785Z,15.63
2022-08-21T18:34:29.122Z,17.33
2022-08-21T18:36:58.483Z,14.07
2022-08-21T18:39:38.220Z,14.07
2022-08-21T18:42:13.232Z,14.40
2022-08-21T18:44:46.324Z,14.47
2022-08-21T18:47:23.136Z,15.20
2022-08-21T18:49:51.707Z,16.33
2022-08-21T18:52:20.674Z,15.00
2022-08-21T18:54:50.688Z,18.33
2022-08-21T19:00:12.406Z,16.57
2022-08-21T19:02:44.148Z,23.30
2022-08-21T19:05:15.982Z,17.83
2022-08-21T19:07:46.414Z,16.50
2022-08-21T19:10:28.056Z,14.87
2022-08-21T19:13:00.681Z,16.43
2022-08-21T19:15:30.290Z,16.57
2022-08-21T19:18:00.253Z,14.63
2022-08-21T19:20:34.373Z,18.80
2022-08-21T19:23:05.159Z,15.33
2022-08-21T19:25:37.160Z,15.63
2022-08-21T19:28:13.207Z,15.20
2022-08-21T19:30:47.979Z,20.43
2022-08-21T19:33:31.767Z,15.20
2022-08-21T19:36:06.894Z,16.27
2022-08-21T19:38:38.938Z,15.50
2022-08-21T19:41:16.754Z,15.33
2022-08-21T19:43:54.100Z,16.40
2022-08-21T19:46:50.050Z,15.03
2022-08-21T19:50:17.402Z,18.77
2022-08-21T20:01:31.143Z,17.40
2022-08-21T20:04:10.764Z,19.60
2022-08-21T20:08:20.026Z,19.90
2022-08-21T20:12:54.017Z,20.87
2022-08-21T20:17:13.163Z,21.20
2022-08-21T20:30:05.753Z,16.20
2022-08-21T20:34:41.263Z,22.70
2022-08-21T20:38:57.533Z,17.37
2022-08-21T20:42:55.762Z,15.43
2022-08-21T21:31:50.148Z,16.50
2022-08-21T21:34:22.892Z,20.03
2022-08-21T21:36:58.950Z,19.17
2022-08-21T21:39:36.405Z,17.93
2022-08-21T21:42:16.242Z,17.83
2022-08-21T21:45:10.691Z,18.90
2022-08-21T21:48:28.375Z,18.60
2022-08-21T21:51:11.973Z,17.83
2022-08-21T21:53:57.002Z,22.40
2022-08-21T21:56:42.877Z,18.60
2022-08-21T21:59:31.810Z,19.13
2022-08-21T22:02:11.328Z,17.20
2022-08-21T22:04:52.901Z,18.20
2022-08-21T22:07:39.977Z,17.90
2022-08-21T22:10:30.773Z,18.33
2022-08-21T22:13:26.702Z,19.97
2022-08-21T22:16:36.107Z,20.40
2022-08-21T22:19:15.488Z,16.70
2022-08-21T22:21:53.086Z,17.80
2022-08-21T22:24:29.800Z,18.43
2022-08-21T22:27:09.683Z,17.20
2022-08-21T22:29:52.068Z,20.80
2022-08-21T22:32:29.961Z,18.43
2022-08-21T22:35:16.549Z,17.03
2022-08-21T22:37:50.295Z,17.97
2022-08-21T22:40:31.401Z,21.53
2022-08-21T22:43:07.404Z,18.50
2022-08-21T22:46:02.560Z,18.10
2022-08-21T22:48:37.280Z,20.50
2022-08-21T22:51:13.569Z,20.00
2022-08-21T22:53:44.640Z,19.13
2022-08-21T22:56:33.855Z,20.60
2022-08-21T22:59:07.400Z,19.63
2022-08-21T23:01:45.066Z,17.80
2022-08-21T23:04:23.470Z,19.30
2022-08-21T23:06:56.273Z,22.87
2022-08-21T23:09:39.052Z,20.83
2022-08-21T23:12:32.968Z,22.57
2022-08-21T23:15:07.969Z,18.70
2022-08-21T23:17:50.187Z,19.00
2022-08-21T23:20:28.257Z,18.50
2022-08-21T23:23:11.202Z,16.90
2022-08-21T23:26:05.118Z,18.30
2022-08-21T23:29:07.718Z,19.90
2022-08-21T23:31:46.968Z,20.60
2022-08-21T23:34:28.484Z,20.87
2022-08-21T23:37:48.937Z,21.60
2022-08-21T23:40:51.346Z,21.83
2022-08-21T23:43:40.853Z,22.37
2022-08-21T23:46:53.576Z,19.23
2022-08-21T23:49:44.056Z,19.70
2022-08-21T23:52:51.346Z,17.37
2022-08-21T23:55:39.213Z,20.40
2022-08-21T23:58:27.417Z,19.30
